• Join FlightAware (Why Join?)
  • Login
  • US Flag 
12:02PM EDT


 

Airport Tracker/Info


-or-


 

Live Flight TrackerFlight Track Log ✈ SWA3939 ✈ 15-Jun-2013 ✈ KPDX - KSLC

Flight Track Log - Related Links

Times and Time Zones

All times are in EDT time to prevent confusion due to time zone crossing. See the SWA3939 flight status page for this flight to view local times or setup timezone preferences in your user account.

Time Position Orientation Groundspeed Altitude Reporting Facility
EDT Latitude Longitude Course Direction KTS MPH feet Rate Location/Type
08:44PM 45.6050 -122.6464 300° West 175 201 1,600  Level Seattle Center
08:45PM 45.6242 -122.6936 300° West 224 258 3,200 3,000 Climbing Seattle Center
08:45PM 45.6414 -122.7306 304° West 202 232 4,700 3,360 Climbing Seattle Center
08:45PM 45.6536 -122.7650 297° West 229 264 6,300 3,540 Climbing Seattle Center
08:46PM 45.6703 -122.8169 295° West 239 275 8,300 2,760 Climbing Seattle Center
08:47PM 45.6167 -122.8447 200° South 268 308 10,800 2,580 Climbing Seattle Center
08:48PM 45.5664 -122.7358 123° Southeast 334 384 13,600 3,060 Climbing Seattle Center
08:49PM 45.5175 -122.6161 120° Southeast 348 400 17,100 3,000 Climbing Seattle Center
08:50PM 45.4661 -122.4900 120° Southeast 362 417 19,700 2,520 Climbing Seattle Center
08:51PM 45.4117 -122.3561 120° Southeast 383 441 22,300 2,400 Climbing Seattle Center
08:52PM 45.3544 -122.2158 120° Southeast 403 464 24,600 2,220 Climbing Seattle Center
08:53PM 45.3058 -122.0617 114° Southeast 427 491 26,800 2,160 Climbing Seattle Center
08:54PM 45.2611 -121.8881 110° East 437 503 29,000 1,860 Climbing Seattle Center
08:55PM 45.2169 -121.7225 111° Southeast 447 514 30,700 1,740 Climbing Seattle Center
08:56PM 45.1708 -121.5531 111° Southeast 461 531 32,600 1,860 Climbing Seattle Center
08:57PM 45.1256 -121.3847 111° Southeast 458 527 34,600 1,680 Climbing Seattle Center
08:58PM 45.0800 -121.2200 111° Southeast 453 521 36,100 1,140 Climbing Seattle Center
08:59PM 45.0344 -121.0550 111° Southeast 453 521 37,000 420 Climbing Seattle Center
09:00PM 44.9892 -120.8908 111° Southeast 450 518 37,000  Level Seattle Center
09:01PM 44.9433 -120.7272 112° Southeast 451 519 37,000  Level Seattle Center
09:02PM 44.8969 -120.5628 112° Southeast 453 521 37,000  Level Seattle Center
09:03PM 44.8511 -120.4008 112° Southeast 451 519 37,000  Level Seattle Center
09:04PM 44.7964 -120.2072 112° Southeast 449 517 37,000  Level Seattle Center
09:05PM 44.7506 -120.0481 112° Southeast 449 517 37,000 480 Level Seattle Center
09:06PM 44.7044 -119.8875 112° Southeast 451 519 38,000 900 Climbing Seattle Center
09:07PM 44.6575 -119.7239 112° Southeast 455 524 38,900 480 Climbing Seattle Center
09:08PM 44.6108 -119.5625 112° Southeast 452 520 39,000  Climbing Seattle Center
09:09PM 44.5633 -119.3997 112° Southeast 454 522 39,000  Level Seattle Center
09:10PM 44.5142 -119.2386 113° Southeast 453 521 39,000  Level Seattle Center
09:11PM 44.4650 -119.0753 113° Southeast 455 524 39,000  Level Seattle Center
09:12PM 44.4161 -118.9131 113° Southeast 454 522 39,000  Level Seattle Center
09:14PM 44.3567 -118.7175 113° Southeast 457 526 39,000  Level Salt Lake Center
09:14PM 44.3006 -118.5611 117° Southeast 454 522 39,000  Level Seattle Center
09:15PM 44.2425 -118.4042 117° Southeast 455 524 39,000  Level Seattle Center
09:16PM 44.1858 -118.2467 117° Southeast 458 527 39,000  Level Seattle Center
09:18PM 44.1222 -118.0764 117° Southeast 462 532 39,000  Level Seattle Center
09:19PM 44.0667 -117.9236 117° Southeast 464 534 39,000  Level Seattle Center
09:20PM 44.0100 -117.7719 117° Southeast 462 532 39,000  Level Seattle Center
09:21PM 43.9464 -117.6000 117° Southeast 453 521 39,000  Level Seattle Center
09:22PM 43.8772 -117.4242 119° Southeast 456 525 39,000  Level Salt Lake Center
09:23PM 43.8219 -117.2767 117° Southeast 456 525 39,000  Level Salt Lake Center
09:24PM 43.7575 -117.1039 117° Southeast 456 525 39,000  Level Salt Lake Center
09:25PM 43.7006 -116.9558 118° Southeast 456 525 39,000  Level Salt Lake Center
09:26PM 43.6344 -116.7831 118° Southeast 457 526 39,000  Level Salt Lake Center
09:27PM 43.5781 -116.6333 117° Southeast 463 533 39,000  Level Salt Lake Center
09:28PM 43.5200 -116.4844 118° Southeast 463 533 39,000  Level Salt Lake Center
09:29PM 43.4514 -116.3094 118° Southeast 466 536 39,000  Level Salt Lake Center
09:30PM 43.3931 -116.1611 118° Southeast 462 532 39,000  Level Salt Lake Center
09:31PM 43.3247 -115.9864 118° Southeast 464 534 39,000  Level Salt Lake Center
09:32PM 43.2661 -115.8381 118° Southeast 461 531 39,000  Level Salt Lake Center
09:33PM 43.2067 -115.6878 118° Southeast 466 536 39,000  Level Salt Lake Center
09:34PM 43.1367 -115.5150 119° Southeast 466 536 39,000  Level Salt Lake Center
09:35PM 43.0778 -115.3675 119° Southeast 462 532 39,000  Level Salt Lake Center
09:36PM 43.0061 -115.1936 119° Southeast 471 542 39,000  Level Salt Lake Center
09:37PM 42.9461 -115.0450 119° Southeast 467 537 39,000  Level Salt Lake Center
09:38PM 42.8856 -114.8958 119° Southeast 470 541 39,000  Level Salt Lake Center
09:39PM 42.8144 -114.7233 119° Southeast 469 540 39,000  Level Salt Lake Center
09:40PM 42.7494 -114.5653 119° Southeast 469 540 39,000  Level Salt Lake Center
09:41PM 42.6933 -114.4297 119° Southeast 465 535 39,000  Level Salt Lake Center
09:42PM 42.6172 -114.2469 119° Southeast 464 534 39,000  Level Salt Lake Center
09:43PM 42.5525 -114.0978 120° Southeast 461 531 39,000  Level Salt Lake Center
09:44PM 42.4892 -113.9461 119° Southeast 463 533 39,000  Level Salt Lake Center
09:45PM 42.4258 -113.7961 120° Southeast 461 531 39,000  Level Salt Lake Center
09:46PM 42.3622 -113.6483 120° Southeast 457 526 39,000 -480 Level Salt Lake Center
09:47PM 42.2967 -113.4969 120° Southeast 463 533 38,100 -1,740 Descending Salt Lake Center
09:48PM 42.2097 -113.3719 133° Southeast 458 527 35,500 -2,760 Descending Salt Lake Center
09:49PM 42.1208 -113.2544 136° Southeast 452 520 32,500 -2,760 Descending Salt Lake Center
09:50PM 42.0306 -113.1342 135° Southeast 456 525 30,000 -2,340 Descending Salt Lake Center
09:51PM 41.9422 -113.0194 136° Southeast 445 512 27,800 -2,400 Descending Salt Lake Center
09:52PM 41.8411 -112.8889 136° Southeast 424 488 25,200 -2,340 Descending Salt Lake Center
09:53PM 41.7614 -112.7842 136° Southeast 406 467 23,100 -1,920 Descending Salt Lake Center
09:54PM 41.6825 -112.6836 136° Southeast 397 457 21,300 -2,100 Descending Salt Lake Center
09:55PM 41.6475 -112.6275 130° Southeast 385 443 20,000 -2,220 Descending Salt Lake Center
09:55PM 41.6072 -112.5864 143° Southeast 379 436 19,100 -1,920 Descending Salt Lake Center
09:56PM 41.5658 -112.5258 132° Southeast 375 432 17,900 -1,980 Descending Salt Lake Center
09:56PM 41.5317 -112.4914 143° Southeast 375 432 17,100 -900 Descending Salt Lake Center
09:57PM 41.4778 -112.4353 142° Southeast 373 429 17,000 -120 Descending Salt Lake Center
09:57PM 41.4458 -112.4169 157° South 371 427 17,000 -600 Level Salt Lake Center
09:58PM 41.3861 -112.3719 151° Southeast 370 426 16,400 -1,200 Descending Salt Lake Center
09:59PM 41.3553 -112.3533 156° South 367 422 15,800 -2,040 Descending Salt Lake Center
09:59PM 41.2989 -112.3100 150° Southeast 360 414 14,400 -2,040 Descending Salt Lake Center
10:00PM 41.2686 -112.2908 155° Southeast 357 411 13,700 -1,380 Descending Salt Lake Center
10:00PM 41.2125 -112.2508 152° Southeast 350 403 13,000 -720 Descending Salt Lake Center
10:01PM 41.1692 -112.2181 150° Southeast 342 394 13,000  Level Salt Lake Center
10:01PM 41.1311 -112.1872 149° Southeast 340 391 13,000  Level Salt Lake Center
10:02PM 41.0889 -112.1550 150° Southeast 338 389 13,000  Level Salt Lake Center
10:02PM 41.0444 -112.1397 165° South 339 390 13,000 -120 Level Salt Lake Center
10:03PM 40.9992 -112.1297 171° South 333 383 12,900 -1,020 Descending Salt Lake Center
10:03PM 40.9550 -112.1219 172° South 331 381 12,000 -1,860 Descending Salt Lake Center
10:04PM 40.9100 -112.1108 169° South 328 377 11,000 -1,440 Descending Salt Lake Center
10:04PM 40.8608 -112.1028 173° South 317 365 10,600 -720 Descending Salt Lake Center
10:05PM 40.8281 -112.0933 168° South 293 337 10,300 -720 Descending Salt Lake Center
10:05PM 40.7864 -112.0853 172° South 265 305 9,900 -900 Descending Salt Lake Center
10:06PM 40.7589 -112.0761 166° South 249 287 9,400 -1,200 Descending Salt Lake Center
10:06PM 40.7192 -112.0714 175° South 241 277 8,700 -1,380 Descending Salt Lake Center
10:07PM 40.6814 -112.0592 166° South 235 270 8,000 -1,140 Descending Salt Lake Center
10:07PM 40.6644 -112.0333 131° Southeast 234 269 7,600 -1,200 Descending Salt Lake Center
10:08PM 40.6675 -111.9881 85° East 220 253 6,800 -1,320 Descending Salt Lake Center
10:08PM 40.6836 -111.9672 44° Northeast 205 236 6,300 -1,200 Descending Salt Lake Center
10:09PM 40.7111 -111.9658 North 176 203 5,600 -1,200 Descending Salt Lake Center
10:09PM 40.7297 -111.9714 347° North 163 188 5,100 -1,020 Descending Salt Lake Center
10:10PM 40.7536 -111.9706 North 154 177 4,600 -600 Descending Salt Lake Center
10:11PM 40.7939 -111.9742 356° North 147 169 4,200 -420 Descending Salt Lake Center